Terminal Aerodrome Forecast
Issued by NWS

Home | Current Version | Previous Version | Text Only | Print | Product List | Glossary On
Versions: 1 2 3 4 5 6 7 8 9 10 11 12 13 14 15
000
FTUS44 KEPZ 241700 RRA
TAFLRU
TAF
KLRU 241735Z 2418/2518 25016G26KT P6SM FEW090 FEW140 SCT250
     FM250300 27006KT P6SM FEW140 SCT250
     FM251700 24012G22KT P6SM SCT250=

USA.gov is the U.S. government's official web portal to all federal, state and local government web resources and services.